Terminal Aerodrome Forecast
Issued by NWS Cleveland, OH

Home | Current Version | Previous Version | Graphics & Text | Print | Product List | Glossary On
Versions: 1 2 3 4 5 6 7 8 9 10 11 12 13 14 15 16 17 18 19 20 21 22 23 24 25 26 27 28 29
000
FTUS41 KCLE 171400 AAB
TAFCLE
TAF AMD
KCLE 171428Z 1714/1818 30006KT 4SM BR OVC025
      TEMPO 1714/1715 6SM BR SCT025
     FM171800 32008KT P6SM SKC
     FM180100 18004KT P6SM SCT250
     FM181500 30010KT P6SM SCT250=

USA.gov is the U.S. government's official web portal to all federal, state and local government web resources and services.